createdAt,value
2019-03-06T09:53:21.834Z,11.40
2019-03-06T15:19:12.393Z,12.30
2019-03-06T15:22:02.220Z,12.30
2019-03-06T15:24:40.712Z,12.30
2019-03-06T15:27:21.118Z,12.30
2019-03-06T15:54:31.959Z,12.10
2019-03-06T15:57:01.271Z,12.10
2019-03-06T15:59:49.495Z,12.00
2019-03-06T16:02:37.717Z,12.00
2019-03-06T20:30:15.786Z,10.90
2019-03-06T20:33:03.167Z,11.00
2019-03-06T20:35:50.674Z,11.00
2019-03-06T20:38:37.204Z,11.00
2019-03-06T20:41:24.645Z,11.00
2019-03-06T20:44:11.234Z,11.00
2019-03-06T20:46:58.663Z,11.00
2019-03-06T20:49:45.541Z,11.00
2019-03-06T20:52:32.937Z,11.00
2019-03-06T20:55:19.614Z,11.00
2019-03-06T20:58:06.485Z,11.00
2019-03-06T21:00:53.463Z,11.00
2019-03-06T21:03:40.977Z,11.00
2019-03-06T21:06:33.642Z,11.00
2019-03-06T21:09:17.108Z,11.00
2019-03-06T21:12:04.804Z,11.00
2019-03-06T21:14:51.362Z,11.00
2019-03-06T21:17:38.836Z,10.90
2019-03-06T21:20:26.110Z,10.90
2019-03-06T21:23:13.198Z,10.90
2019-03-06T21:26:00.301Z,10.90
2019-03-06T21:28:46.935Z,10.80
2019-03-06T21:34:20.350Z,10.80
2019-03-06T21:37:07.424Z,10.80
2019-03-06T21:39:53.985Z,10.80
2019-03-06T21:42:41.395Z,10.80
2019-03-06T21:45:28.699Z,10.80
2019-03-06T21:48:15.996Z,10.80
2019-03-06T21:51:05.325Z,10.80
2019-03-06T21:59:23.410Z,10.90
2019-03-06T22:02:10.754Z,10.90
2019-03-06T22:04:58.233Z,10.80
2019-03-06T22:10:31.714Z,10.70
2019-03-06T22:13:19.038Z,10.70
2019-03-06T22:16:05.547Z,10.70
2019-03-06T22:18:52.706Z,10.60
2019-03-06T22:21:40.049Z,10.60
2019-03-06T22:24:27.454Z,10.50
2019-03-06T22:30:04.141Z,10.50
